createdAt,value
2022-10-31T00:01:30.015Z,98118.00
2022-10-31T00:03:57.237Z,98120.00
2022-10-31T00:06:24.850Z,98124.00
2022-10-31T00:09:01.707Z,98115.00
2022-10-31T00:11:29.183Z,98111.00
2022-10-31T00:13:56.340Z,98115.00
2022-10-31T00:16:26.639Z,98108.00
2022-10-31T00:19:00.505Z,98111.00
2022-10-31T00:21:28.914Z,98114.00
2022-10-31T00:23:56.068Z,98111.00
2022-10-31T00:26:23.221Z,98114.00
2022-10-31T00:28:50.397Z,98111.00
2022-10-31T00:31:18.018Z,98122.00
2022-10-31T00:33:45.362Z,98123.00
2022-10-31T00:36:16.708Z,98123.00
2022-10-31T00:38:45.119Z,98124.00
2022-10-31T00:41:14.008Z,98124.00
2022-10-31T00:43:41.345Z,98122.00
2022-10-31T00:46:08.519Z,98112.00
2022-10-31T00:48:35.756Z,98116.00
2022-10-31T00:51:02.947Z,98118.00
2022-10-31T00:53:29.954Z,98128.00
2022-10-31T00:55:57.133Z,98121.00
2022-10-31T00:58:24.317Z,98122.00
2022-10-31T01:00:57.684Z,98117.00
2022-10-31T01:03:31.806Z,98116.00
2022-10-31T01:06:08.248Z,98115.00
2022-10-31T01:08:37.905Z,98108.00
2022-10-31T01:11:21.713Z,98117.00
2022-10-31T01:13:51.867Z,98115.00
2022-10-31T01:16:23.529Z,98110.00
2022-10-31T01:18:51.309Z,98117.00
2022-10-31T01:21:28.252Z,98121.00
2022-10-31T01:23:56.760Z,98120.00
2022-10-31T01:26:27.317Z,98123.00
2022-10-31T01:28:58.281Z,98119.00
2022-10-31T01:31:33.095Z,98113.00
2022-10-31T01:34:00.809Z,98112.00
2022-10-31T01:36:33.286Z,98111.00
2022-10-31T01:39:07.884Z,98116.00
2022-10-31T01:41:40.281Z,98117.00
2022-10-31T01:44:16.428Z,98116.00
2022-10-31T01:46:51.877Z,98115.00
2022-10-31T01:49:50.644Z,98110.00
2022-10-31T01:52:31.316Z,98108.00
2022-10-31T01:55:07.163Z,98106.00
2022-10-31T01:57:39.093Z,98105.00
2022-10-31T02:00:09.781Z,98103.00
2022-10-31T02:02:37.510Z,98100.00
2022-10-31T02:05:11.078Z,98100.00
2022-10-31T02:08:30.890Z,98103.00
2022-10-31T02:10:59.505Z,98101.00
2022-10-31T02:13:27.295Z,98101.00
2022-10-31T02:15:59.095Z,98102.00
2022-10-31T02:18:30.997Z,98106.00
2022-10-31T02:21:18.534Z,98106.00
2022-10-31T02:24:25.296Z,98110.00
2022-10-31T02:27:12.804Z,98106.00
2022-10-31T02:30:18.185Z,98103.00
2022-10-31T02:32:53.193Z,98103.00
2022-10-31T02:36:07.257Z,98097.00
2022-10-31T02:39:10.841Z,98102.00
2022-10-31T02:42:29.116Z,98105.00
2022-10-31T02:45:02.247Z,98110.00
2022-10-31T02:47:34.980Z,98109.00
2022-10-31T02:50:15.309Z,98091.00
2022-10-31T02:52:42.483Z,98106.00
2022-10-31T02:55:27.791Z,98113.00
2022-10-31T02:58:11.394Z,98110.00
2022-10-31T03:01:08.591Z,98105.00
2022-10-31T03:04:02.828Z,98103.00
2022-10-31T03:07:30.359Z,98103.00
2022-10-31T03:10:34.857Z,98099.00
2022-10-31T03:13:42.772Z,98109.00
2022-10-31T03:16:41.835Z,98109.00
2022-10-31T03:19:29.052Z,98108.00
2022-10-31T03:22:20.841Z,98107.00
2022-10-31T03:24:52.159Z,98110.00
2022-10-31T03:27:26.715Z,98116.00
2022-10-31T03:30:04.080Z,98110.00
2022-10-31T03:32:51.185Z,98108.00
2022-10-31T03:35:22.263Z,98117.00
2022-10-31T03:37:53.055Z,98117.00
2022-10-31T03:40:24.540Z,98117.00
2022-10-31T03:43:02.291Z,98114.00
2022-10-31T03:45:32.128Z,98131.00
2022-10-31T03:48:02.765Z,98125.00
2022-10-31T03:50:42.826Z,98136.00
2022-10-31T03:53:23.526Z,98132.00
2022-10-31T03:56:19.303Z,98132.00
2022-10-31T03:59:19.548Z,98132.00
2022-10-31T04:01:54.276Z,98140.00
2022-10-31T04:04:22.101Z,98137.00
2022-10-31T04:06:51.544Z,98146.00
2022-10-31T04:09:20.676Z,98147.00
2022-10-31T04:11:53.325Z,98150.00
2022-10-31T04:14:21.665Z,98137.00
2022-10-31T04:16:48.895Z,98140.00
2022-10-31T04:19:16.559Z,98141.00
2022-10-31T04:21:44.460Z,98137.00
2022-10-31T04:24:12.138Z,98137.00
2022-10-31T04:26:39.464Z,98140.00
2022-10-31T04:29:06.556Z,98135.00
2022-10-31T04:31:33.669Z,98138.00
2022-10-31T04:34:00.823Z,98137.00
2022-10-31T04:36:27.866Z,98142.00
2022-10-31T04:38:55.140Z,98147.00
2022-10-31T04:41:22.140Z,98139.00
2022-10-31T04:43:49.535Z,98150.00
2022-10-31T04:46:16.652Z,98140.00
2022-10-31T04:48:43.854Z,98139.00
2022-10-31T04:51:10.974Z,98127.00
2022-10-31T04:53:39.241Z,98135.00
2022-10-31T04:56:06.858Z,98143.00
2022-10-31T04:58:33.945Z,98140.00
2022-10-31T05:01:01.347Z,98140.00
2022-10-31T05:03:28.563Z,98131.00
2022-10-31T05:05:55.684Z,98131.00
2022-10-31T05:08:22.764Z,98131.00
2022-10-31T05:10:49.872Z,98135.00
2022-10-31T05:13:17.124Z,98134.00
2022-10-31T05:15:44.239Z,98136.00
2022-10-31T05:18:11.433Z,98135.00
2022-10-31T05:20:38.663Z,98142.00
2022-10-31T05:23:05.673Z,98137.00
2022-10-31T05:25:32.711Z,98150.00
2022-10-31T05:28:00.368Z,98148.00
2022-10-31T05:30:31.589Z,98139.00
2022-10-31T05:32:59.712Z,98143.00
2022-10-31T05:35:30.948Z,98138.00
2022-10-31T05:37:59.360Z,98134.00
2022-10-31T05:40:28.222Z,98140.00
2022-10-31T05:42:57.236Z,98138.00
2022-10-31T05:45:25.043Z,98136.00
2022-10-31T05:47:59.469Z,98132.00
2022-10-31T05:50:29.903Z,98145.00
2022-10-31T05:53:05.867Z,98147.00
2022-10-31T05:55:33.739Z,98145.00
2022-10-31T05:58:01.680Z,98142.00
2022-10-31T06:00:29.982Z,98140.00
2022-10-31T06:03:07.066Z,98146.00
2022-10-31T06:05:34.498Z,98150.00
2022-10-31T06:08:02.705Z,98151.00
2022-10-31T06:10:30.187Z,98150.00
2022-10-31T06:12:57.512Z,98157.00
2022-10-31T06:15:25.031Z,98151.00
2022-10-31T06:18:04.718Z,98156.00
2022-10-31T06:20:32.617Z,98148.00
2022-10-31T06:23:00.140Z,98148.00
2022-10-31T06:25:28.288Z,98154.00
2022-10-31T06:27:57.134Z,98152.00
2022-10-31T06:30:24.320Z,98151.00
2022-10-31T06:32:51.616Z,98156.00
2022-10-31T06:35:18.920Z,98147.00
2022-10-31T06:37:54.087Z,98145.00
2022-10-31T06:40:21.706Z,98147.00
2022-10-31T06:42:48.919Z,98156.00
2022-10-31T06:45:16.177Z,98158.00
2022-10-31T06:48:15.074Z,98159.00
2022-10-31T06:50:30.660Z,98166.00
2022-10-31T06:52:59.623Z,98162.00
2022-10-31T06:55:27.808Z,98168.00
2022-10-31T06:58:03.052Z,98175.00
2022-10-31T07:00:31.938Z,98172.00
2022-10-31T07:03:06.823Z,98171.00
2022-10-31T07:05:34.441Z,98172.00
2022-10-31T07:08:05.450Z,98169.00
2022-10-31T07:10:40.043Z,98166.00
2022-10-31T07:13:15.046Z,98160.00
2022-10-31T07:15:44.417Z,98170.00
2022-10-31T07:18:13.166Z,98176.00
2022-10-31T07:20:40.555Z,98180.00
2022-10-31T07:23:08.485Z,98175.00
2022-10-31T07:25:35.642Z,98167.00
2022-10-31T07:28:03.029Z,98175.00
2022-10-31T07:30:30.483Z,98170.00
2022-10-31T07:32:57.738Z,98166.00
2022-10-31T07:35:28.506Z,98175.00
2022-10-31T07:37:55.952Z,98167.00
2022-10-31T07:40:24.949Z,98166.00
2022-10-31T07:42:53.796Z,98160.00
2022-10-31T07:45:22.300Z,98154.00
2022-10-31T07:47:53.266Z,98157.00
2022-10-31T07:50:27.073Z,98163.00
2022-10-31T07:53:03.113Z,98166.00
2022-10-31T07:55:31.420Z,98172.00
2022-10-31T07:58:04.737Z,98165.00
2022-10-31T08:00:34.788Z,98167.00
2022-10-31T08:03:11.129Z,98159.00
2022-10-31T08:05:39.128Z,98169.00
2022-10-31T08:08:07.178Z,98170.00
2022-10-31T08:10:35.041Z,98167.00
2022-10-31T08:13:13.645Z,98157.00
2022-10-31T08:15:42.809Z,98170.00
2022-10-31T08:18:15.033Z,98169.00
2022-10-31T08:20:44.076Z,98166.00
2022-10-31T08:23:13.097Z,98157.00
2022-10-31T08:25:40.909Z,98155.00
2022-10-31T08:28:10.258Z,98151.00
2022-10-31T08:30:38.597Z,98149.00
2022-10-31T08:33:11.608Z,98147.00
2022-10-31T08:35:38.924Z,98145.00
2022-10-31T08:38:06.606Z,98140.00
2022-10-31T08:40:36.076Z,98141.00
2022-10-31T08:43:06.610Z,98130.00
2022-10-31T08:45:35.334Z,98130.00
2022-10-31T08:48:05.948Z,98134.00
2022-10-31T08:50:36.906Z,98127.00
2022-10-31T08:53:10.728Z,98120.00
2022-10-31T08:55:39.722Z,98119.00
2022-10-31T08:58:11.754Z,98115.00
2022-10-31T09:00:39.440Z,98117.00
2022-10-31T09:03:12.385Z,98113.00
2022-10-31T09:05:40.093Z,98106.00
2022-10-31T09:08:14.797Z,98107.00
2022-10-31T09:10:43.870Z,98109.00
2022-10-31T09:13:14.734Z,98108.00
2022-10-31T09:15:44.800Z,98100.00
2022-10-31T09:18:14.420Z,98100.00
2022-10-31T09:20:43.301Z,98095.00
2022-10-31T09:23:14.444Z,98090.00
2022-10-31T09:25:46.252Z,98099.00
2022-10-31T09:28:19.627Z,98099.00
2022-10-31T09:30:52.546Z,98098.00
2022-10-31T09:33:20.404Z,98095.00
2022-10-31T09:35:47.763Z,98103.00
2022-10-31T09:38:20.431Z,98089.00
2022-10-31T09:41:10.122Z,98097.00
2022-10-31T09:44:15.359Z,98091.00
2022-10-31T09:47:22.332Z,98086.00
2022-10-31T09:50:03.997Z,98081.00
2022-10-31T09:52:35.285Z,98079.00
2022-10-31T09:55:10.304Z,98084.00
2022-10-31T09:57:38.745Z,98072.00
2022-10-31T10:00:16.900Z,98075.00
2022-10-31T10:03:06.432Z,98066.00
2022-10-31T10:06:18.807Z,98068.00
2022-10-31T10:08:46.353Z,98076.00
2022-10-31T10:11:31.304Z,98065.00
2022-10-31T10:14:10.225Z,98062.00
2022-10-31T10:17:13.468Z,98058.00
2022-10-31T10:19:56.701Z,98063.00
2022-10-31T10:22:56.306Z,98054.00
2022-10-31T10:25:55.309Z,98057.00
2022-10-31T10:28:39.316Z,98050.00
2022-10-31T10:31:25.656Z,98055.00
2022-10-31T10:34:07.826Z,98055.00
2022-10-31T10:37:06.288Z,98039.00
2022-10-31T10:39:49.116Z,98044.00
2022-10-31T10:42:35.931Z,98036.00
2022-10-31T10:45:38.580Z,98027.00
2022-10-31T10:48:40.578Z,98029.00
2022-10-31T10:51:38.824Z,98030.00
2022-10-31T10:54:40.027Z,98029.00
2022-10-31T10:57:19.129Z,98026.00
2022-10-31T10:59:47.540Z,98010.00
2022-10-31T11:02:27.163Z,98015.00
2022-10-31T11:04:57.996Z,98004.00
2022-10-31T11:07:25.529Z,98007.00
2022-10-31T11:09:52.512Z,97996.00
2022-10-31T11:12:31.074Z,97998.00
2022-10-31T11:15:05.020Z,97992.00
2022-10-31T11:17:41.334Z,97989.00
2022-10-31T11:20:17.930Z,97987.00
2022-10-31T11:22:48.745Z,97977.00
2022-10-31T11:25:23.770Z,97982.00
2022-10-31T11:28:10.668Z,97986.00
2022-10-31T11:30:56.157Z,97979.00
2022-10-31T11:33:33.124Z,97970.00
2022-10-31T11:36:04.709Z,97967.00
2022-10-31T11:38:41.667Z,97962.00
2022-10-31T11:41:42.343Z,97962.00
2022-10-31T11:44:29.200Z,97951.00
2022-10-31T11:47:02.888Z,97948.00
2022-10-31T11:49:50.554Z,97942.00
2022-10-31T11:52:28.684Z,97939.00
2022-10-31T11:55:15.045Z,97943.00
2022-10-31T11:57:48.422Z,97920.00
2022-10-31T12:00:34.474Z,97933.00
2022-10-31T12:03:28.617Z,97921.00
2022-10-31T12:06:12.313Z,97923.00
2022-10-31T12:08:42.486Z,97923.00
2022-10-31T12:11:31.828Z,97919.00
2022-10-31T12:14:33.155Z,97912.00
2022-10-31T12:17:16.137Z,97913.00
2022-10-31T12:20:15.303Z,97917.00
2022-10-31T12:23:03.904Z,97907.00
2022-10-31T12:26:38.102Z,97905.00
2022-10-31T12:29:28.278Z,97897.00
2022-10-31T12:32:17.209Z,97878.00
2022-10-31T12:35:29.543Z,97892.00
2022-10-31T12:38:33.944Z,97888.00
2022-10-31T12:41:09.604Z,97880.00
2022-10-31T12:43:57.382Z,97883.00
2022-10-31T12:46:55.557Z,97875.00
2022-10-31T12:50:12.820Z,97874.00
2022-10-31T12:53:15.491Z,97870.00
2022-10-31T12:56:06.760Z,97869.00
2022-10-31T12:58:46.702Z,97862.00
2022-10-31T13:01:34.534Z,97855.00
2022-10-31T13:04:13.020Z,97848.00
2022-10-31T13:06:52.278Z,97839.00
2022-10-31T13:09:40.073Z,97844.00
2022-10-31T13:12:20.345Z,97845.00
2022-10-31T13:14:55.803Z,97844.00
2022-10-31T13:17:33.156Z,97837.00
2022-10-31T13:20:55.963Z,97838.00
2022-10-31T13:26:34.462Z,97844.00
2022-10-31T13:29:21.798Z,97827.00
2022-10-31T13:31:49.229Z,97841.00
2022-10-31T13:34:28.020Z,97836.00
2022-10-31T13:37:14.979Z,97818.00
2022-10-31T13:40:30.685Z,97816.00
2022-10-31T13:43:24.708Z,97821.00
2022-10-31T13:45:57.060Z,97812.00
2022-10-31T13:48:26.861Z,97810.00
2022-10-31T13:51:04.862Z,97813.00
2022-10-31T13:53:41.985Z,97804.00
2022-10-31T13:56:19.345Z,97798.00
2022-10-31T13:59:11.507Z,97809.00
2022-10-31T14:01:57.411Z,97796.00
2022-10-31T14:04:38.585Z,97797.00
2022-10-31T14:07:18.662Z,97801.00
2022-10-31T14:10:24.018Z,97794.00
2022-10-31T14:12:51.712Z,97797.00
2022-10-31T14:15:26.194Z,97792.00
2022-10-31T14:17:59.425Z,97798.00
2022-10-31T14:20:41.162Z,97795.00
2022-10-31T14:23:45.516Z,97797.00
2022-10-31T14:26:33.426Z,97792.00
2022-10-31T14:29:34.893Z,97803.00
2022-10-31T14:32:15.664Z,97791.00
2022-10-31T14:34:45.037Z,97796.00
2022-10-31T14:37:24.491Z,97798.00
2022-10-31T14:40:09.716Z,97801.00
2022-10-31T14:43:02.041Z,97790.00
2022-10-31T14:45:44.408Z,97785.00
2022-10-31T14:48:29.486Z,97791.00
2022-10-31T14:51:01.149Z,97785.00
2022-10-31T14:53:36.403Z,97785.00
2022-10-31T14:56:07.082Z,97777.00
2022-10-31T14:58:37.099Z,97779.00
2022-10-31T15:01:06.080Z,97776.00
2022-10-31T15:03:44.110Z,97774.00
2022-10-31T15:06:19.581Z,97768.00
2022-10-31T15:08:55.790Z,97770.00
2022-10-31T15:11:28.554Z,97756.00
2022-10-31T15:13:59.218Z,97770.00
2022-10-31T15:19:09.005Z,97757.00
2022-10-31T15:21:43.934Z,97752.00
2022-10-31T15:24:19.488Z,97744.00
2022-10-31T15:26:51.807Z,97751.00
2022-10-31T15:29:23.686Z,97746.00
2022-10-31T15:31:57.125Z,97741.00
2022-10-31T15:34:32.176Z,97744.00
2022-10-31T15:36:59.300Z,97741.00
2022-10-31T15:39:26.532Z,97741.00
2022-10-31T15:42:00.901Z,97744.00
2022-10-31T15:44:37.909Z,97734.00
2022-10-31T15:47:16.905Z,97736.00
2022-10-31T15:49:55.139Z,97733.00
2022-10-31T15:52:41.172Z,97731.00
2022-10-31T15:55:12.073Z,97731.00
2022-10-31T15:57:49.205Z,97732.00
2022-10-31T16:00:23.329Z,97728.00
2022-10-31T16:02:50.603Z,97730.00
2022-10-31T16:05:21.097Z,97720.00
2022-10-31T16:07:53.310Z,97724.00
2022-10-31T16:10:27.785Z,97714.00
2022-10-31T16:12:55.564Z,97714.00
2022-10-31T16:15:23.151Z,97712.00
2022-10-31T16:17:52.546Z,97718.00
2022-10-31T16:20:38.729Z,97720.00
2022-10-31T16:23:06.168Z,97720.00
2022-10-31T16:25:39.463Z,97733.00
2022-10-31T16:28:27.128Z,97725.00
2022-10-31T16:30:58.975Z,97722.00
2022-10-31T16:33:37.403Z,97725.00
2022-10-31T16:36:35.347Z,97724.00
2022-10-31T16:39:03.867Z,97720.00
2022-10-31T16:41:31.311Z,97713.00
2022-10-31T16:43:58.512Z,97718.00
2022-10-31T16:46:28.447Z,97714.00
2022-10-31T16:48:56.187Z,97720.00
2022-10-31T16:51:23.202Z,97716.00
2022-10-31T16:53:54.457Z,97718.00
2022-10-31T16:56:39.811Z,97722.00
2022-10-31T16:59:16.060Z,97716.00
2022-10-31T17:01:49.033Z,97730.00
2022-10-31T17:04:16.621Z,97732.00
2022-10-31T17:06:43.914Z,97729.00
2022-10-31T17:09:11.216Z,97730.00
2022-10-31T17:11:49.384Z,97717.00
2022-10-31T17:14:19.296Z,97734.00
2022-10-31T17:16:46.543Z,97732.00
2022-10-31T17:19:13.595Z,97731.00
2022-10-31T17:21:42.186Z,97720.00
2022-10-31T17:24:14.323Z,97721.00
2022-10-31T17:26:42.169Z,97727.00
2022-10-31T17:29:09.439Z,97727.00
2022-10-31T17:31:39.300Z,97731.00
2022-10-31T17:34:08.611Z,97722.00
2022-10-31T17:36:36.542Z,97721.00
2022-10-31T17:39:07.521Z,97722.00
2022-10-31T17:41:34.782Z,97723.00
2022-10-31T17:44:02.217Z,97722.00
2022-10-31T17:46:29.460Z,97721.00
2022-10-31T17:48:56.696Z,97722.00
2022-10-31T17:51:23.860Z,97722.00
2022-10-31T17:53:51.174Z,97724.00
2022-10-31T17:56:18.341Z,97721.00
2022-10-31T17:58:45.849Z,97717.00
2022-10-31T18:01:16.733Z,97720.00
2022-10-31T18:03:44.493Z,97719.00
2022-10-31T18:06:14.450Z,97717.00
2022-10-31T18:08:42.245Z,97711.00
2022-10-31T18:11:21.576Z,97723.00
2022-10-31T18:13:55.343Z,97716.00
2022-10-31T18:16:23.213Z,97713.00
2022-10-31T18:18:53.626Z,97698.00
2022-10-31T18:21:21.662Z,97712.00
2022-10-31T18:23:48.787Z,97708.00
2022-10-31T18:26:16.054Z,97701.00
2022-10-31T18:28:43.184Z,97692.00
2022-10-31T18:31:10.573Z,97693.00
2022-10-31T18:33:37.964Z,97691.00
2022-10-31T18:36:07.272Z,97702.00
2022-10-31T18:38:38.661Z,97696.00
2022-10-31T18:41:06.320Z,97698.00
2022-10-31T18:43:33.738Z,97696.00
2022-10-31T18:46:12.276Z,97691.00
2022-10-31T18:48:42.218Z,97689.00
2022-10-31T18:51:12.232Z,97683.00
2022-10-31T18:53:39.307Z,97687.00
2022-10-31T18:56:11.380Z,97694.00
2022-10-31T18:58:38.606Z,97675.00
2022-10-31T19:01:08.544Z,97684.00
2022-10-31T19:03:36.600Z,97673.00
2022-10-31T19:06:05.160Z,97676.00
2022-10-31T19:08:32.648Z,97673.00
2022-10-31T19:11:14.713Z,97670.00
2022-10-31T19:13:43.776Z,97670.00
2022-10-31T19:16:14.905Z,97671.00
2022-10-31T19:18:43.529Z,97671.00
2022-10-31T19:21:17.038Z,97674.00
2022-10-31T19:23:45.650Z,97676.00
2022-10-31T19:26:13.643Z,97680.00
2022-10-31T19:28:41.986Z,97672.00
2022-10-31T19:31:10.460Z,97679.00
2022-10-31T19:33:37.694Z,97667.00
2022-10-31T19:36:10.425Z,97682.00
2022-10-31T19:38:40.820Z,97676.00
2022-10-31T19:41:16.651Z,97675.00
2022-10-31T19:43:44.391Z,97674.00
2022-10-31T19:46:22.282Z,97676.00
2022-10-31T19:48:55.661Z,97670.00
2022-10-31T19:51:23.049Z,97681.00
2022-10-31T19:53:50.160Z,97672.00
2022-10-31T19:56:23.933Z,97678.00
2022-10-31T19:58:51.005Z,97674.00
2022-10-31T20:01:24.027Z,97679.00
2022-10-31T20:03:51.924Z,97676.00
2022-10-31T20:06:30.628Z,97678.00
2022-10-31T20:08:58.296Z,97679.00
2022-10-31T20:11:28.024Z,97673.00
2022-10-31T20:13:56.864Z,97684.00
2022-10-31T20:16:24.251Z,97688.00
2022-10-31T20:18:51.495Z,97686.00
2022-10-31T20:21:24.965Z,97682.00
2022-10-31T20:24:01.830Z,97676.00
2022-10-31T20:26:30.982Z,97686.00
2022-10-31T20:29:00.192Z,97681.00
2022-10-31T20:31:33.020Z,97683.00
2022-10-31T20:34:00.589Z,97676.00
2022-10-31T20:36:29.618Z,97677.00
2022-10-31T20:38:57.349Z,97678.00
2022-10-31T20:41:25.308Z,97674.00
2022-10-31T20:43:52.851Z,97682.00
2022-10-31T20:46:26.246Z,97689.00
2022-10-31T20:48:54.707Z,97680.00
2022-10-31T20:51:28.721Z,97676.00
2022-10-31T20:53:58.139Z,97677.00
2022-10-31T20:56:27.960Z,97681.00
2022-10-31T20:58:56.545Z,97675.00
2022-10-31T21:01:28.011Z,97683.00
2022-10-31T21:03:55.584Z,97680.00
2022-10-31T21:06:23.797Z,97680.00
2022-10-31T21:08:52.099Z,97684.00
2022-10-31T21:11:21.960Z,97671.00
2022-10-31T21:13:50.492Z,97675.00
2022-10-31T21:16:31.188Z,97683.00
2022-10-31T21:19:01.280Z,97683.00
2022-10-31T21:21:36.253Z,97687.00
2022-10-31T21:24:12.123Z,97681.00
2022-10-31T21:26:43.789Z,97676.00
2022-10-31T21:29:12.658Z,97677.00
2022-10-31T21:31:41.258Z,97671.00
2022-10-31T21:34:09.291Z,97677.00
2022-10-31T21:36:37.064Z,97684.00
2022-10-31T21:39:07.473Z,97683.00
2022-10-31T21:41:34.772Z,97677.00
2022-10-31T21:44:02.260Z,97681.00
2022-10-31T21:46:32.441Z,97685.00
2022-10-31T21:49:02.389Z,97680.00
2022-10-31T21:51:32.946Z,97675.00
2022-10-31T21:54:21.039Z,97675.00
2022-10-31T21:56:48.468Z,97676.00
2022-10-31T21:59:15.582Z,97677.00
2022-10-31T22:01:42.892Z,97677.00
2022-10-31T22:04:10.480Z,97674.00
2022-10-31T22:06:38.210Z,97674.00
2022-10-31T22:09:08.067Z,97679.00
2022-10-31T22:11:36.163Z,97681.00
2022-10-31T22:14:04.487Z,97671.00
2022-10-31T22:16:35.919Z,97672.00
2022-10-31T22:19:06.011Z,97675.00
2022-10-31T22:21:46.654Z,97679.00
2022-10-31T22:24:15.212Z,97687.00
2022-10-31T22:26:42.455Z,97677.00
2022-10-31T22:29:18.733Z,97678.00
2022-10-31T22:31:53.525Z,97681.00
2022-10-31T22:34:24.591Z,97688.00
2022-10-31T22:36:54.636Z,97685.00
2022-10-31T22:39:21.865Z,97680.00
2022-10-31T22:41:48.981Z,97681.00
2022-10-31T22:44:16.186Z,97680.00
2022-10-31T22:46:43.339Z,97685.00
2022-10-31T22:49:15.115Z,97684.00
2022-10-31T22:51:43.359Z,97691.00
2022-10-31T22:54:15.440Z,97694.00
2022-10-31T22:56:42.696Z,97692.00
2022-10-31T22:59:17.164Z,97693.00
2022-10-31T23:01:46.042Z,97693.00
2022-10-31T23:04:16.193Z,97701.00
2022-10-31T23:06:43.700Z,97702.00
2022-10-31T23:09:15.892Z,97693.00
2022-10-31T23:11:43.492Z,97694.00
2022-10-31T23:14:21.024Z,97701.00
2022-10-31T23:16:56.702Z,97688.00
2022-10-31T23:19:27.818Z,97687.00
2022-10-31T23:22:03.088Z,97692.00
2022-10-31T23:24:34.226Z,97686.00
2022-10-31T23:27:09.262Z,97694.00
2022-10-31T23:29:46.884Z,97702.00
2022-10-31T23:32:25.164Z,97711.00
2022-10-31T23:34:59.161Z,97703.00
2022-10-31T23:37:31.702Z,97698.00
2022-10-31T23:39:59.021Z,97703.00
2022-10-31T23:42:27.841Z,97699.00
2022-10-31T23:44:55.148Z,97695.00
2022-10-31T23:47:23.260Z,97711.00
2022-10-31T23:49:51.025Z,97709.00
2022-10-31T23:52:19.113Z,97699.00
2022-10-31T23:54:46.337Z,97704.00
2022-10-31T23:57:15.395Z,97694.00
2022-10-31T23:59:42.524Z,97697.00
